Time;durP1;ratioP1;P1;durP2;ratioP2;P2;SDS_P1;SDS_P2;PMS_P1;PMS_P2;Temp;Humidity;BMP_temperature;BMP_pressure;BME280_temperature;BME280_humidity;BME280_pressure;Samples;Min_cycle;Max_cycle;Signal;HPM_P1;HPM_P2
2022/08/20 00:00:22;;;;;;;;;3.00;3.00;;;;;;;;5075874;28;47392;-65
2022/08/20 00:02:50;;;;;;;;;3.00;3.00;;;;;;;;5076640;28;45310;-64
2022/08/20 00:05:16;;;;;;;;;1.67;1.67;;;;;;;;5076825;28;45384;-65
2022/08/20 00:07:41;;;;;;;;;3.67;2.33;;;;;;;;5076024;27;45443;-65
2022/08/20 00:10:07;;;;;;;;;7.33;3.00;;;;;;;;5075308;28;47344;-65
2022/08/20 00:12:33;;;;;;;;;2.33;2.33;;;;;;;;5074246;27;45527;-64
2022/08/20 00:14:59;;;;;;;;;3.00;3.00;;;;;;;;5074784;28;45486;-64
2022/08/20 00:17:24;;;;;;;;;3.00;3.00;;;;;;;;5058300;28;45357;-64
2022/08/20 00:19:49;;;;;;;;;3.67;2.33;;;;;;;;5076441;27;46519;-64
2022/08/20 00:22:14;;;;;;;;;3.67;3.00;;;;;;;;5075623;28;45317;-65
2022/08/20 00:24:40;;;;;;;;;3.00;3.00;;;;;;;;5074094;28;45390;-64
2022/08/20 00:27:05;;;;;;;;;4.00;4.00;;;;;;;;5056347;28;45605;-64
2022/08/20 00:29:30;;;;;;;;;3.67;2.00;;;;;;;;5056223;28;48286;-63
2022/08/20 00:31:56;;;;;;;;;3.33;2.67;;;;;;;;5074920;28;45318;-64
2022/08/20 00:34:21;;;;;;;;;2.33;2.33;;;;;;;;5058147;28;45319;-64
2022/08/20 00:36:46;;;;;;;;;3.00;2.00;;;;;;;;5076365;28;45404;-64
2022/08/20 00:39:11;;;;;;;;;5.00;1.00;;;;;;;;5076218;28;46262;-64
2022/08/20 00:41:37;;;;;;;;;2.00;2.00;;;;;;;;5075423;28;45420;-64
2022/08/20 00:44:07;;;;;;;;;4.00;4.00;;;;;;;;5075807;28;45337;-63
2022/08/20 00:46:33;;;;;;;;;2.67;2.67;;;;;;;;5075473;28;45687;-63
2022/08/20 01:04:25;;;;;;;;;3.67;2.67;;;;;;;;5071856;27;45434;-63
2022/08/20 01:06:50;;;;;;;;;3.00;2.00;;;;;;;;5075288;28;45384;-63
2022/08/20 01:09:15;;;;;;;;;2.00;1.67;;;;;;;;5075289;28;45361;-63
2022/08/20 01:11:41;;;;;;;;;2.00;2.00;;;;;;;;5056885;28;47490;-63
2022/08/20 01:16:51;;;;;;;;;5.67;3.00;;;;;;;;5075999;28;45341;-63
2022/08/20 01:19:20;;;;;;;;;4.00;2.00;;;;;;;;5075118;28;45390;-63
2022/08/20 01:21:45;;;;;;;;;2.67;2.67;;;;;;;;5075199;27;45865;-63
2022/08/20 01:24:23;;;;;;;;;5.67;3.00;;;;;;;;5075322;28;45396;-63
2022/08/20 01:26:49;;;;;;;;;2.00;2.00;;;;;;;;5075687;28;45372;-63
2022/08/20 01:29:17;;;;;;;;;3.33;2.00;;;;;;;;5057386;28;45500;-63
2022/08/20 01:31:43;;;;;;;;;4.33;2.00;;;;;;;;5075187;28;47674;-63
2022/08/20 01:34:10;;;;;;;;;3.00;2.00;;;;;;;;5074975;28;45328;-63
2022/08/20 01:36:37;;;;;;;;;2.00;2.00;;;;;;;;5075305;28;45395;-63
2022/08/20 01:39:03;;;;;;;;;2.00;2.00;;;;;;;;5073890;28;45455;-63
2022/08/20 01:41:42;;;;;;;;;1.00;1.00;;;;;;;;5074172;28;47903;-63
2022/08/20 01:44:08;;;;;;;;;2.67;1.67;;;;;;;;5075193;28;45266;-63
2022/08/20 01:46:35;;;;;;;;;5.67;3.67;;;;;;;;5073824;28;45367;-63
2022/08/20 01:49:06;;;;;;;;;4.00;1.67;;;;;;;;5065188;28;45306;-63
2022/08/20 01:51:31;;;;;;;;;3.33;2.33;;;;;;;;5082582;27;47472;-63
2022/08/20 01:53:58;;;;;;;;;2.00;1.67;;;;;;;;5094299;27;45416;-62
2022/08/20 01:56:25;;;;;;;;;1.33;1.33;;;;;;;;5093209;27;45512;-64
2022/08/20 01:58:52;;;;;;;;;2.67;1.00;;;;;;;;5093916;27;45379;-63
2022/08/20 02:01:19;;;;;;;;;4.33;2.00;;;;;;;;5093111;27;47325;-64
2022/08/20 02:03:44;;;;;;;;;2.67;1.33;;;;;;;;5093560;27;45468;-64
2022/08/20 02:06:09;;;;;;;;;3.33;2.00;;;;;;;;5095202;27;45406;-64
2022/08/20 02:08:34;;;;;;;;;4.00;1.67;;;;;;;;5093025;27;45938;-64
2022/08/20 02:11:00;;;;;;;;;3.33;3.33;;;;;;;;5091566;27;46598;-63
2022/08/20 02:13:25;;;;;;;;;4.00;1.67;;;;;;;;5091701;27;45352;-64
2022/08/20 02:15:50;;;;;;;;;3.33;2.00;;;;;;;;5070455;27;45672;-63
2022/08/20 02:18:16;;;;;;;;;4.67;2.33;;;;;;;;5090233;27;45418;-63
2022/08/20 02:20:42;;;;;;;;;3.00;1.67;;;;;;;;5091856;27;46432;-64
2022/08/20 02:23:10;;;;;;;;;3.67;2.67;;;;;;;;5092735;27;45437;-64
2022/08/20 02:25:36;;;;;;;;;2.00;1.67;;;;;;;;5092709;27;45488;-64
2022/08/20 02:28:04;;;;;;;;;2.00;1.67;;;;;;;;5093494;27;45446;-62
2022/08/20 02:30:34;;;;;;;;;2.33;2.33;;;;;;;;5073293;27;46644;-63
2022/08/20 02:33:00;;;;;;;;;3.00;3.00;;;;;;;;5095689;27;45611;-63
2022/08/20 02:35:26;;;;;;;;;2.67;2.67;;;;;;;;5079294;27;45381;-63
2022/08/20 02:37:52;;;;;;;;;3.00;2.33;;;;;;;;5097838;27;45436;-63
2022/08/20 02:40:18;;;;;;;;;2.33;2.33;;;;;;;;5097441;27;46440;-62
2022/08/20 02:42:43;;;;;;;;;3.67;2.33;;;;;;;;5076652;27;45511;-63
2022/08/20 02:45:13;;;;;;;;;2.67;2.00;;;;;;;;5079890;27;45268;-64
2022/08/20 02:47:39;;;;;;;;;3.33;2.00;;;;;;;;5098193;27;45345;-63
2022/08/20 02:50:05;;;;;;;;;3.00;2.00;;;;;;;;5097444;27;46661;-64
2022/08/20 02:52:30;;;;;;;;;2.00;1.33;;;;;;;;5097578;27;45346;-64
2022/08/20 02:54:56;;;;;;;;;1.33;1.00;;;;;;;;5096403;27;45539;-64
2022/08/20 02:57:21;;;;;;;;;5.00;3.00;;;;;;;;5098192;27;45867;-64
2022/08/20 02:59:47;;;;;;;;;3.67;2.67;;;;;;;;5098027;27;45768;-64
2022/08/20 03:02:12;;;;;;;;;4.00;2.00;;;;;;;;5096572;27;45909;-64
2022/08/20 03:04:38;;;;;;;;;1.67;1.67;;;;;;;;5078558;27;45349;-64
2022/08/20 03:07:04;;;;;;;;;1.67;1.67;;;;;;;;5077546;27;45498;-64
2022/08/20 03:09:29;;;;;;;;;2.33;2.33;;;;;;;;5098238;27;45702;-63
2022/08/20 03:11:54;;;;;;;;;3.67;3.67;;;;;;;;5098182;27;45407;-64
2022/08/20 03:14:19;;;;;;;;;1.00;1.00;;;;;;;;5079861;27;45345;-64
2022/08/20 03:16:45;;;;;;;;;1.33;1.33;;;;;;;;5098200;27;45425;-64
2022/08/20 03:19:10;;;;;;;;;3.00;1.00;;;;;;;;5097508;27;46459;-64
2022/08/20 03:21:35;;;;;;;;;1.67;1.67;;;;;;;;5095917;27;45434;-63
2022/08/20 03:24:00;;;;;;;;;2.50;2.50;;;;;;;;5097294;27;45608;-64
2022/08/20 03:26:26;;;;;;;;;3.00;2.00;;;;;;;;5096208;27;45362;-64
2022/08/20 03:28:51;;;;;;;;;2.00;2.00;;;;;;;;5095263;27;47422;-64
2022/08/20 03:31:16;;;;;;;;;5.67;3.33;;;;;;;;5095553;27;45803;-64
2022/08/20 03:33:42;;;;;;;;;2.00;2.00;;;;;;;;5077860;27;45903;-64
2022/08/20 03:36:07;;;;;;;;;1.00;1.00;;;;;;;;5097072;27;45367;-63
2022/08/20 03:38:32;;;;;;;;;6.00;3.00;;;;;;;;5096477;27;46452;-63
2022/08/20 03:40:58;;;;;;;;;2.33;2.33;;;;;;;;5096466;27;45433;-64
2022/08/20 03:43:23;;;;;;;;;3.67;3.67;;;;;;;;5077668;27;45825;-64
2022/08/20 03:45:49;;;;;;;;;4.00;2.67;;;;;;;;5097244;27;45456;-64
2022/08/20 03:48:16;;;;;;;;;3.00;1.67;;;;;;;;5093027;27;46391;-62
2022/08/20 03:50:42;;;;;;;;;3.00;2.00;;;;;;;;5096393;27;45480;-63
2022/08/20 03:53:09;;;;;;;;;2.67;2.00;;;;;;;;5097331;27;45634;-64
2022/08/20 03:55:34;;;;;;;;;3.00;3.00;;;;;;;;5096737;27;45499;-63
2022/08/20 03:58:01;;;;;;;;;4.00;2.00;;;;;;;;5094765;27;47469;-63
2022/08/20 04:00:29;;;;;;;;;2.00;2.00;;;;;;;;5096837;27;45431;-64
2022/08/20 04:02:55;;;;;;;;;4.00;2.33;;;;;;;;5075199;27;45373;-63
2022/08/20 04:05:21;;;;;;;;;4.33;1.67;;;;;;;;5095723;27;45332;-63
2022/08/20 04:07:46;;;;;;;;;2.33;2.33;;;;;;;;5095215;27;46366;-64
2022/08/20 04:10:12;;;;;;;;;3.33;2.00;;;;;;;;5077368;27;46094;-63
2022/08/20 04:12:39;;;;;;;;;3.00;2.00;;;;;;;;5086314;27;45426;-64
2022/08/20 04:15:09;;;;;;;;;2.00;2.00;;;;;;;;5054154;28;45423;-64
2022/08/20 04:17:35;;;;;;;;;2.67;2.67;;;;;;;;5052840;28;46257;-63
2022/08/20 04:20:02;;;;;;;;;5.33;2.33;;;;;;;;5054177;28;45358;-63
2022/08/20 04:22:27;;;;;;;;;2.00;2.00;;;;;;;;5038016;28;45296;-63
2022/08/20 04:24:52;;;;;;;;;4.33;2.00;;;;;;;;5056046;28;45362;-63
2022/08/20 04:27:20;;;;;;;;;1.67;1.67;;;;;;;;5056345;28;45757;-63
2022/08/20 04:29:45;;;;;;;;;2.00;2.00;;;;;;;;5056124;28;45353;-64
2022/08/20 04:32:11;;;;;;;;;1.33;1.33;;;;;;;;5054046;28;45501;-63
2022/08/20 04:34:36;;;;;;;;;3.00;2.00;;;;;;;;5054739;28;45489;-64
2022/08/20 04:37:02;;;;;;;;;2.33;1.33;;;;;;;;5055969;28;45283;-63
2022/08/20 04:39:27;;;;;;;;;3.00;2.00;;;;;;;;5054329;28;45403;-63
2022/08/20 04:41:52;;;;;;;;;3.67;1.67;;;;;;;;5053118;27;45413;-64
2022/08/20 04:44:18;;;;;;;;;5.00;2.67;;;;;;;;5056152;28;45467;-63
2022/08/20 04:46:43;;;;;;;;;2.75;2.75;;;;;;;;5052513;28;46266;-63
2022/08/20 04:49:08;;;;;;;;;2.00;2.00;;;;;;;;5054171;28;45465;-63
2022/08/20 04:51:34;;;;;;;;;2.00;2.00;;;;;;;;5067673;27;45287;-63
2022/08/20 04:54:00;;;;;;;;;4.25;3.00;;;;;;;;5095185;27;45444;-63
2022/08/20 04:56:26;;;;;;;;;2.67;1.67;;;;;;;;5095490;27;46298;-63
2022/08/20 04:58:53;;;;;;;;;2.00;2.00;;;;;;;;5075925;27;45921;-63
2022/08/20 05:01:18;;;;;;;;;2.67;1.00;;;;;;;;5093864;27;45533;-63
2022/08/20 05:03:46;;;;;;;;;2.00;2.00;;;;;;;;5074924;27;45636;-63
2022/08/20 05:06:11;;;;;;;;;2.00;2.00;;;;;;;;5096059;27;46591;-63
2022/08/20 05:08:37;;;;;;;;;3.00;2.00;;;;;;;;5095095;27;45523;-63
2022/08/20 05:11:03;;;;;;;;;3.33;3.00;;;;;;;;5095472;27;45335;-63
2022/08/20 05:13:28;;;;;;;;;3.00;2.00;;;;;;;;5095551;27;45370;-62
2022/08/20 05:15:54;;;;;;;;;4.50;3.00;;;;;;;;5094784;27;47042;-63
2022/08/20 05:18:21;;;;;;;;;2.50;2.00;;;;;;;;5093380;27;45395;-62
2022/08/20 05:20:47;;;;;;;;;3.00;1.00;;;;;;;;5093908;27;45360;-62
2022/08/20 05:23:13;;;;;;;;;2.33;2.33;;;;;;;;5096516;27;45279;-62
2022/08/20 05:25:39;;;;;;;;;2.00;2.00;;;;;;;;5077681;27;46517;-63
2022/08/20 05:28:08;;;;;;;;;1.00;1.00;;;;;;;;5095794;27;45355;-63
2022/08/20 05:30:34;;;;;;;;;2.67;1.33;;;;;;;;5095734;27;45218;-64
2022/08/20 05:32:59;;;;;;;;;2.67;2.00;;;;;;;;5074207;27;45441;-63
2022/08/20 05:35:26;;;;;;;;;3.00;2.75;;;;;;;;5093320;27;46469;-63
2022/08/20 05:37:52;;;;;;;;;4.00;4.00;;;;;;;;5076524;27;45394;-63
2022/08/20 05:40:18;;;;;;;;;4.00;2.33;;;;;;;;5075912;27;46039;-64
2022/08/20 05:42:43;;;;;;;;;1.33;1.00;;;;;;;;5095576;27;45464;-64
2022/08/20 05:45:08;;;;;;;;;4.67;3.00;;;;;;;;5077352;27;48731;-63
2022/08/20 05:47:37;;;;;;;;;4.00;3.00;;;;;;;;5094633;27;45886;-63
2022/08/20 05:50:04;;;;;;;;;2.00;2.00;;;;;;;;5093513;27;45402;-64
2022/08/20 05:52:29;;;;;;;;;2.33;1.67;;;;;;;;5076589;27;45424;-64
2022/08/20 05:54:55;;;;;;;;;2.00;2.00;;;;;;;;5094158;27;45813;-64
2022/08/20 05:57:21;;;;;;;;;2.67;2.67;;;;;;;;5092861;27;45418;-64
2022/08/20 05:59:46;;;;;;;;;1.67;1.67;;;;;;;;5073949;27;45412;-63
2022/08/20 06:04:56;;;;;;;;;1.33;1.33;;;;;;;;5092035;27;45732;-63
2022/08/20 06:07:21;;;;;;;;;1.67;1.67;;;;;;;;5096377;27;45362;-64
2022/08/20 06:09:47;;;;;;;;;1.67;1.67;;;;;;;;5098138;27;45405;-63
2022/08/20 06:12:12;;;;;;;;;3.00;3.00;;;;;;;;5097470;27;45342;-64
2022/08/20 06:14:37;;;;;;;;;2.00;2.00;;;;;;;;5096959;27;45701;-64
2022/08/20 06:17:08;;;;;;;;;3.33;3.33;;;;;;;;5098480;27;45367;-65
2022/08/20 06:19:35;;;;;;;;;4.33;3.33;;;;;;;;5098551;27;45317;-65
2022/08/20 06:22:00;;;;;;;;;4.67;2.67;;;;;;;;5098944;27;45365;-65
2022/08/20 06:24:26;;;;;;;;;2.67;1.67;;;;;;;;5080381;27;47458;-64
2022/08/20 06:26:58;;;;;;;;;2.33;2.33;;;;;;;;5098984;27;45630;-62
2022/08/20 06:29:23;;;;;;;;;3.00;3.00;;;;;;;;5098882;27;45464;-62
2022/08/20 06:31:49;;;;;;;;;2.00;2.00;;;;;;;;5098887;27;45408;-65
2022/08/20 06:34:14;;;;;;;;;4.00;2.00;;;;;;;;5098263;27;45919;-66
2022/08/20 06:36:39;;;;;;;;;3.00;2.00;;;;;;;;5098960;27;45372;-65
2022/08/20 06:39:04;;;;;;;;;4.00;2.00;;;;;;;;5098685;27;45391;-64
2022/08/20 06:41:29;;;;;;;;;5.00;2.00;;;;;;;;5098416;27;45332;-64
2022/08/20 06:43:55;;;;;;;;;3.00;2.00;;;;;;;;5097827;27;45510;-64
2022/08/20 06:46:22;;;;;;;;;2.33;2.00;;;;;;;;5098570;27;45346;-64
2022/08/20 06:48:47;;;;;;;;;3.00;2.67;;;;;;;;5098801;27;45415;-64
2022/08/20 06:51:13;;;;;;;;;2.67;2.67;;;;;;;;5098263;27;45340;-64
2022/08/20 06:53:38;;;;;;;;;3.50;2.50;;;;;;;;5098494;27;46274;-64
2022/08/20 06:56:03;;;;;;;;;3.00;2.00;;;;;;;;5098283;27;45274;-63
2022/08/20 06:58:30;;;;;;;;;2.25;2.25;;;;;;;;5098788;27;45360;-65
2022/08/20 07:00:55;;;;;;;;;5.67;3.33;;;;;;;;5098348;27;45504;-66
2022/08/20 07:03:21;;;;;;;;;6.50;3.50;;;;;;;;5068848;27;47423;-66
2022/08/20 07:05:46;;;;;;;;;3.75;2.50;;;;;;;;5058413;28;45471;-65
2022/08/20 07:08:12;;;;;;;;;5.33;3.00;;;;;;;;5076613;28;45368;-66
2022/08/20 07:10:37;;;;;;;;;5.50;2.50;;;;;;;;5057223;27;45442;-65
2022/08/20 07:13:03;;;;;;;;;7.75;3.00;;;;;;;;5045071;28;48239;-65
2022/08/20 07:15:29;;;;;;;;;0.67;0.67;;;;;;;;5072979;28;45765;-66
2022/08/20 07:17:56;;;;;;;;;5.00;2.67;;;;;;;;5065876;27;45436;-69
2022/08/20 07:20:25;;;;;;;;;4.00;3.00;;;;;;;;5056194;27;45619;-64
2022/08/20 07:22:58;;;;;;;;;3.00;1.67;;;;;;;;5046038;27;47145;-65
2022/08/20 07:25:23;;;;;;;;;6.67;3.00;;;;;;;;5054348;27;45514;-67
2022/08/20 07:27:52;;;;;;;;;2.67;2.67;;;;;;;;5067906;27;45502;-65
2022/08/20 07:33:05;;;;;;;;;3.00;1.67;;;;;;;;5067518;27;45824;-66
2022/08/20 07:35:31;;;;;;;;;7.00;4.00;;;;;;;;5047897;28;45590;-66
2022/08/20 07:37:56;;;;;;;;;2.00;1.00;;;;;;;;5057008;28;45371;-67
2022/08/20 07:40:29;;;;;;;;;3.00;3.00;;;;;;;;5056091;28;45338;-65
2022/08/20 07:42:56;;;;;;;;;2.67;1.33;;;;;;;;5056600;28;46100;-68
2022/08/20 07:45:22;;;;;;;;;2.00;2.00;;;;;;;;5037569;28;45414;-67
2022/08/20 07:47:49;;;;;;;;;1.67;1.67;;;;;;;;5059037;28;45419;-66
2022/08/20 07:50:16;;;;;;;;;4.67;2.00;;;;;;;;5056643;28;45459;-67
2022/08/20 07:52:41;;;;;;;;;3.00;3.00;;;;;;;;5055889;28;46545;-69
2022/08/20 07:55:09;;;;;;;;;7.33;3.67;;;;;;;;5056735;28;45318;-69
2022/08/20 07:57:34;;;;;;;;;1.33;1.33;;;;;;;;5074311;27;45493;-69
2022/08/20 08:00:00;;;;;;;;;3.33;2.00;;;;;;;;5075966;28;45378;-69
2022/08/20 08:02:26;;;;;;;;;4.67;3.00;;;;;;;;5057838;27;48632;-71
2022/08/20 08:04:51;;;;;;;;;2.67;1.67;;;;;;;;5057787;28;46044;-69
2022/08/20 08:07:16;;;;;;;;;2.67;2.33;;;;;;;;5058995;27;45297;-69
2022/08/20 08:09:43;;;;;;;;;3.00;1.75;;;;;;;;5087145;27;45389;-69
2022/08/20 08:12:08;;;;;;;;;7.00;1.67;;;;;;;;5066413;27;47660;-69
2022/08/20 08:14:34;;;;;;;;;3.00;2.00;;;;;;;;5079154;27;45486;-71
2022/08/20 08:17:02;;;;;;;;;2.00;2.00;;;;;;;;5057266;28;45386;-70
2022/08/20 08:19:33;;;;;;;;;1.33;1.33;;;;;;;;5075989;27;45298;-70
2022/08/20 08:21:58;;;;;;;;;2.33;2.00;;;;;;;;5057397;28;48590;-65
2022/08/20 08:24:23;;;;;;;;;1.33;1.00;;;;;;;;5076119;27;45842;-65
2022/08/20 08:26:49;;;;;;;;;3.00;2.00;;;;;;;;5058506;27;45464;-65
2022/08/20 08:29:15;;;;;;;;;3.00;1.67;;;;;;;;5073963;28;45340;-65
2022/08/20 08:31:41;;;;;;;;;1.33;1.33;;;;;;;;5066044;27;46274;-64
2022/08/20 08:34:06;;;;;;;;;5.00;1.67;;;;;;;;5056580;28;45842;-65
2022/08/20 08:36:31;;;;;;;;;3.00;1.67;;;;;;;;5070288;27;45512;-65
2022/08/20 08:38:56;;;;;;;;;2.00;2.00;;;;;;;;5096177;27;45325;-64
2022/08/20 08:41:30;;;;;;;;;2.67;2.33;;;;;;;;5096567;27;46264;-64
2022/08/20 08:44:07;;;;;;;;;3.67;1.00;;;;;;;;5078491;27;46490;-64
2022/08/20 08:46:36;;;;;;;;;3.00;2.00;;;;;;;;5078290;27;45248;-64
2022/08/20 08:49:01;;;;;;;;;7.00;3.00;;;;;;;;5096543;27;45742;-65
2022/08/20 08:51:34;;;;;;;;;4.00;2.00;;;;;;;;5095972;27;45903;-64
2022/08/20 08:54:00;;;;;;;;;1.33;1.33;;;;;;;;5096564;27;45365;-65
2022/08/20 08:56:29;;;;;;;;;3.33;2.00;;;;;;;;5078250;27;45353;-64
2022/08/20 08:58:59;;;;;;;;;5.67;2.33;;;;;;;;5096563;27;45334;-65
2022/08/20 09:01:24;;;;;;;;;1.67;1.67;;;;;;;;5092699;27;46196;-66
2022/08/20 09:03:50;;;;;;;;;1.00;1.00;;;;;;;;5096156;27;45427;-64
2022/08/20 09:06:22;;;;;;;;;1.67;1.67;;;;;;;;5096696;27;45417;-64
2022/08/20 09:08:48;;;;;;;;;0.33;0.33;;;;;;;;5077882;27;45306;-64
2022/08/20 09:11:13;;;;;;;;;2.00;2.00;;;;;;;;5094666;27;47529;-65
2022/08/20 09:13:39;;;;;;;;;3.33;1.00;;;;;;;;5077998;27;45576;-64
2022/08/20 09:16:04;;;;;;;;;2.00;1.00;;;;;;;;5093301;27;45305;-65
2022/08/20 09:18:31;;;;;;;;;1.67;1.67;;;;;;;;5096238;27;45438;-65
2022/08/20 09:20:56;;;;;;;;;4.00;2.00;;;;;;;;5077328;27;45442;-65
2022/08/20 09:23:21;;;;;;;;;2.00;2.00;;;;;;;;5096108;27;45424;-64
2022/08/20 09:25:47;;;;;;;;;1.67;1.00;;;;;;;;5096297;27;45420;-65
2022/08/20 09:28:12;;;;;;;;;0.67;0.67;;;;;;;;5095999;27;45379;-64
2022/08/20 09:30:37;;;;;;;;;1.25;1.25;;;;;;;;5095917;27;46728;-64
2022/08/20 09:33:02;;;;;;;;;1.00;1.00;;;;;;;;5095946;27;45287;-65
2022/08/20 09:35:28;;;;;;;;;1.00;1.00;;;;;;;;5077436;27;45279;-64
2022/08/20 09:37:53;;;;;;;;;1.50;1.50;;;;;;;;5094174;27;45612;-67
2022/08/20 09:40:19;;;;;;;;;2.50;0.75;;;;;;;;5076394;27;46448;-67
2022/08/20 09:42:44;;;;;;;;;0.50;0.00;;;;;;;;5093334;27;45563;-67
2022/08/20 09:45:10;;;;;;;;;1.00;1.00;;;;;;;;5095526;27;45404;-67
2022/08/20 09:47:35;;;;;;;;;1.00;0.25;;;;;;;;5095296;27;45517;-65
2022/08/20 09:50:00;;;;;;;;;1.00;1.00;;;;;;;;5094595;27;46694;-66
2022/08/20 09:52:28;;;;;;;;;1.50;1.25;;;;;;;;5079414;27;45307;-67
2022/08/20 09:54:56;;;;;;;;;0.00;0.00;;;;;;;;5095362;27;45678;-68
2022/08/20 09:57:22;;;;;;;;;3.00;0.00;;;;;;;;5094853;27;45457;-67
2022/08/20 09:59:50;;;;;;;;;1.75;1.00;;;;;;;;5095308;27;45896;-63
2022/08/20 10:02:16;;;;;;;;;0.50;0.50;;;;;;;;5090052;27;45397;-63
2022/08/20 10:04:41;;;;;;;;;1.00;0.00;;;;;;;;5095633;27;45369;-62
2022/08/20 10:07:07;;;;;;;;;1.00;1.00;;;;;;;;5095248;27;45400;-62
2022/08/20 10:09:32;;;;;;;;;0.75;0.75;;;;;;;;5094755;27;46833;-63
2022/08/20 10:11:58;;;;;;;;;1.00;1.00;;;;;;;;5089298;27;45402;-64
2022/08/20 10:14:23;;;;;;;;;0.00;0.00;;;;;;;;5056332;27;45473;-62
2022/08/20 10:16:53;;;;;;;;;0.00;0.00;;;;;;;;5075145;27;45472;-61
2022/08/20 10:19:19;;;;;;;;;1.00;1.00;;;;;;;;5074727;28;45821;-61
2022/08/20 10:21:44;;;;;;;;;0.00;0.00;;;;;;;;5074723;27;45948;-62
2022/08/20 10:24:09;;;;;;;;;2.25;0.50;;;;;;;;5073718;28;45324;-62
2022/08/20 10:26:36;;;;;;;;;2.00;1.00;;;;;;;;5056176;28;45427;-62
2022/08/20 10:29:01;;;;;;;;;0.00;0.00;;;;;;;;5074424;28;46816;-63
2022/08/20 10:31:27;;;;;;;;;0.25;0.25;;;;;;;;5058540;27;45491;-64
2022/08/20 10:33:52;;;;;;;;;1.50;1.00;;;;;;;;5082102;27;45297;-65
2022/08/20 10:36:17;;;;;;;;;1.50;1.00;;;;;;;;5074333;28;45506;-64
2022/08/20 10:38:43;;;;;;;;;1.00;1.00;;;;;;;;5056193;28;46945;-62
2022/08/20 10:41:08;;;;;;;;;2.00;1.75;;;;;;;;5074386;28;45348;-63
2022/08/20 10:43:34;;;;;;;;;1.50;0.50;;;;;;;;5074579;28;45354;-63
2022/08/20 10:45:59;;;;;;;;;1.00;1.00;;;;;;;;5074653;27;45305;-63
2022/08/20 10:48:24;;;;;;;;;4.75;4.75;;;;;;;;5074184;28;45310;-63
2022/08/20 10:50:50;;;;;;;;;3.25;1.75;;;;;;;;5042584;27;45735;-63
2022/08/20 10:53:15;;;;;;;;;0.75;0.00;;;;;;;;5097351;27;45550;-64
2022/08/20 10:55:40;;;;;;;;;1.00;0.75;;;;;;;;5098384;27;45385;-60
2022/08/20 10:58:06;;;;;;;;;0.00;0.00;;;;;;;;5098434;27;46516;-61
2022/08/20 11:00:31;;;;;;;;;1.00;1.00;;;;;;;;5079864;27;45990;-62
2022/08/20 11:02:57;;;;;;;;;3.50;1.00;;;;;;;;5079944;27;45396;-61
2022/08/20 11:05:22;;;;;;;;;0.00;0.00;;;;;;;;5098368;27;45341;-64
2022/08/20 11:07:47;;;;;;;;;0.50;0.25;;;;;;;;5097775;27;45674;-61
2022/08/20 11:10:12;;;;;;;;;1.25;0.25;;;;;;;;5097985;27;46102;-62
2022/08/20 11:12:38;;;;;;;;;2.25;1.00;;;;;;;;5098223;27;45358;-61
2022/08/20 11:15:03;;;;;;;;;2.00;2.00;;;;;;;;5079576;27;45455;-61
2022/08/20 11:17:30;;;;;;;;;1.25;0.75;;;;;;;;5067570;28;48760;-61
2022/08/20 11:19:56;;;;;;;;;1.25;1.25;;;;;;;;5085323;27;45712;-62
2022/08/20 11:22:22;;;;;;;;;1.25;0.75;;;;;;;;5049263;28;45554;-60
2022/08/20 11:24:47;;;;;;;;;0.00;0.00;;;;;;;;5038565;28;45528;-60
2022/08/20 11:27:23;;;;;;;;;1.00;1.00;;;;;;;;5038396;28;48435;-61
2022/08/20 11:29:48;;;;;;;;;1.00;1.00;;;;;;;;5057240;28;45369;-61
2022/08/20 11:32:13;;;;;;;;;1.25;1.25;;;;;;;;5056154;28;45399;-60
2022/08/20 11:34:39;;;;;;;;;1.75;1.00;;;;;;;;5056277;28;45275;-61
2022/08/20 11:37:04;;;;;;;;;3.00;1.50;;;;;;;;5038573;28;48578;-61
2022/08/20 11:39:29;;;;;;;;;2.00;1.00;;;;;;;;5056658;28;45343;-61
2022/08/20 11:41:54;;;;;;;;;3.00;2.00;;;;;;;;5038256;28;45283;-61
2022/08/20 11:44:20;;;;;;;;;1.50;1.00;;;;;;;;5038399;28;45454;-60
2022/08/20 11:46:45;;;;;;;;;1.33;1.33;;;;;;;;5037250;28;48924;-66
2022/08/20 11:49:10;;;;;;;;;2.00;2.00;;;;;;;;5037028;28;45534;-60
2022/08/20 11:51:36;;;;;;;;;1.67;1.33;;;;;;;;5076773;27;45469;-62
2022/08/20 11:54:02;;;;;;;;;1.00;1.00;;;;;;;;5078835;27;45455;-60
2022/08/20 11:56:27;;;;;;;;;2.00;1.00;;;;;;;;5096972;27;46430;-59
2022/08/20 11:58:52;;;;;;;;;1.00;1.00;;;;;;;;5078750;27;45488;-60
2022/08/20 12:01:18;;;;;;;;;3.50;3.50;;;;;;;;5077808;27;45490;-60
2022/08/20 12:03:43;;;;;;;;;3.75;2.00;;;;;;;;5096614;27;45460;-60
2022/08/20 12:06:08;;;;;;;;;2.00;2.00;;;;;;;;5077705;27;47368;-60
2022/08/20 12:08:33;;;;;;;;;1.33;1.33;;;;;;;;5078664;27;45477;-60
2022/08/20 12:11:00;;;;;;;;;4.50;2.25;;;;;;;;5078260;27;45531;-60
2022/08/20 12:13:26;;;;;;;;;2.33;2.33;;;;;;;;5096583;27;45428;-60
2022/08/20 12:15:52;;;;;;;;;1.00;1.00;;;;;;;;5096106;27;46414;-59
2022/08/20 12:18:18;;;;;;;;;2.00;1.00;;;;;;;;5077804;27;45402;-59
2022/08/20 12:20:43;;;;;;;;;2.00;2.00;;;;;;;;5078373;27;45388;-60
2022/08/20 12:23:08;;;;;;;;;4.00;2.33;;;;;;;;5078286;27;45355;-60
2022/08/20 12:25:33;;;;;;;;;3.33;2.67;;;;;;;;5077616;27;48758;-61
2022/08/20 12:27:58;;;;;;;;;3.00;2.00;;;;;;;;5078304;27;46042;-60
2022/08/20 12:30:24;;;;;;;;;2.00;2.00;;;;;;;;5078354;27;45468;-60
2022/08/20 12:32:49;;;;;;;;;2.25;1.00;;;;;;;;5077379;27;45440;-60
2022/08/20 12:35:16;;;;;;;;;1.00;1.00;;;;;;;;5061147;27;47997;-59
2022/08/20 12:37:42;;;;;;;;;1.00;1.00;;;;;;;;5096242;27;45314;-59
2022/08/20 12:40:09;;;;;;;;;1.33;1.33;;;;;;;;5090868;27;45221;-60
2022/08/20 12:42:34;;;;;;;;;1.00;1.00;;;;;;;;5078034;27;45739;-60
2022/08/20 12:45:00;;;;;;;;;3.25;2.25;;;;;;;;5077600;27;47607;-60
2022/08/20 12:47:27;;;;;;;;;3.00;2.00;;;;;;;;5096231;27;45420;-59
2022/08/20 12:49:54;;;;;;;;;2.00;2.00;;;;;;;;5078133;27;45388;-59
2022/08/20 12:52:21;;;;;;;;;3.00;3.00;;;;;;;;5096158;27;45477;-62
2022/08/20 12:54:46;;;;;;;;;3.00;2.00;;;;;;;;5095136;27;46149;-62
2022/08/20 12:57:29;;;;;;;;;2.75;2.75;;;;;;;;5077520;27;45449;-62
2022/08/20 13:00:00;;;;;;;;;3.00;2.00;;;;;;;;5077572;27;45442;-61
2022/08/20 13:02:26;;;;;;;;;2.00;2.00;;;;;;;;5096171;27;45333;-62
2022/08/20 13:04:51;;;;;;;;;3.00;2.00;;;;;;;;5077504;27;48394;-63
2022/08/20 13:07:16;;;;;;;;;2.00;2.00;;;;;;;;5077541;27;46076;-62
2022/08/20 13:09:42;;;;;;;;;3.00;3.00;;;;;;;;5096117;27;45358;-62
2022/08/20 13:12:08;;;;;;;;;2.25;2.00;;;;;;;;5075818;27;45508;-62
2022/08/20 13:14:34;;;;;;;;;1.50;1.50;;;;;;;;5076117;27;47552;-62
2022/08/20 13:17:00;;;;;;;;;4.00;3.00;;;;;;;;5093597;27;45439;-62
2022/08/20 13:19:26;;;;;;;;;3.00;3.00;;;;;;;;5095719;27;45326;-60
2022/08/20 13:21:52;;;;;;;;;2.75;2.75;;;;;;;;5077533;27;45654;-63
2022/08/20 13:24:17;;;;;;;;;1.50;1.50;;;;;;;;5068491;27;47181;-64
2022/08/20 13:26:42;;;;;;;;;2.00;2.00;;;;;;;;5054935;28;46060;-65
2022/08/20 13:29:07;;;;;;;;;4.75;4.00;;;;;;;;5053772;28;45383;-62
2022/08/20 13:31:33;;;;;;;;;2.50;2.50;;;;;;;;5073726;28;45360;-61
2022/08/20 13:33:58;;;;;;;;;3.50;2.00;;;;;;;;5057533;28;47539;-62
2022/08/20 13:36:23;;;;;;;;;3.00;1.50;;;;;;;;5075338;28;45349;-61
2022/08/20 13:38:48;;;;;;;;;2.50;2.00;;;;;;;;5057417;28;45626;-63
2022/08/20 13:41:14;;;;;;;;;2.25;2.25;;;;;;;;5057652;28;45402;-60
2022/08/20 13:43:39;;;;;;;;;2.00;1.50;;;;;;;;5057812;28;47501;-62
2022/08/20 13:46:05;;;;;;;;;2.25;2.25;;;;;;;;5055759;28;45403;-62
2022/08/20 13:48:30;;;;;;;;;2.50;2.50;;;;;;;;5056625;28;45460;-61
2022/08/20 13:50:55;;;;;;;;;2.00;2.00;;;;;;;;5077631;27;45370;-62
2022/08/20 13:53:21;;;;;;;;;1.25;1.25;;;;;;;;5075393;28;46016;-61
2022/08/20 13:55:46;;;;;;;;;3.00;2.00;;;;;;;;5075721;28;45270;-61
2022/08/20 13:58:11;;;;;;;;;3.75;2.75;;;;;;;;5057259;28;45939;-62
2022/08/20 14:00:36;;;;;;;;;1.50;1.50;;;;;;;;5075699;28;45490;-62
2022/08/20 14:03:03;;;;;;;;;2.50;2.50;;;;;;;;5056046;28;47653;-65
2022/08/20 14:05:29;;;;;;;;;1.33;1.33;;;;;;;;5067948;28;45923;-63
2022/08/20 14:07:54;;;;;;;;;3.00;3.00;;;;;;;;5076909;27;45463;-61
2022/08/20 14:10:23;;;;;;;;;2.00;2.00;;;;;;;;5076223;27;45342;-62
2022/08/20 14:12:49;;;;;;;;;2.00;2.00;;;;;;;;5076675;27;48327;-62
2022/08/20 14:15:15;;;;;;;;;2.00;2.00;;;;;;;;5077454;27;45651;-61
2022/08/20 14:17:41;;;;;;;;;2.00;2.00;;;;;;;;5095981;27;45502;-61
2022/08/20 14:20:08;;;;;;;;;2.50;0.50;;;;;;;;5076601;27;45551;-61
2022/08/20 14:22:34;;;;;;;;;2.75;2.00;;;;;;;;5055766;28;47636;-63
2022/08/20 14:25:02;;;;;;;;;3.00;1.00;;;;;;;;5074832;28;45469;-62
2022/08/20 14:27:28;;;;;;;;;1.25;1.25;;;;;;;;5058397;28;45572;-62
2022/08/20 14:29:53;;;;;;;;;2.25;2.25;;;;;;;;5079399;28;45643;-62
2022/08/20 14:32:18;;;;;;;;;2.00;2.00;;;;;;;;5060797;28;48352;-62
2022/08/20 14:34:44;;;;;;;;;2.50;1.50;;;;;;;;5060966;28;45596;-62
2022/08/20 14:37:20;;;;;;;;;1.00;1.00;;;;;;;;5079330;27;45503;-62
2022/08/20 14:39:46;;;;;;;;;1.25;1.25;;;;;;;;5060187;28;45367;-62
2022/08/20 14:42:12;;;;;;;;;3.50;2.25;;;;;;;;5060481;28;48635;-61
2022/08/20 14:44:37;;;;;;;;;2.00;2.00;;;;;;;;5079039;28;45360;-62
2022/08/20 14:47:19;;;;;;;;;1.00;1.00;;;;;;;;5060982;28;45414;-61
2022/08/20 14:49:45;;;;;;;;;2.00;2.00;;;;;;;;5060188;27;45925;-62
2022/08/20 14:52:11;;;;;;;;;2.00;2.00;;;;;;;;5057909;28;46564;-60
2022/08/20 14:54:37;;;;;;;;;1.25;1.25;;;;;;;;5060299;27;46060;-60
2022/08/20 14:57:02;;;;;;;;;1.50;1.50;;;;;;;;5091404;27;45363;-62
2022/08/20 14:59:28;;;;;;;;;1.50;1.00;;;;;;;;5085464;27;45433;-62